Map

Track Data

SID SEASON NUMBER BASIN SUBBASIN NAME ISO_TIME NATURE LAT LON WMO_WIND WMO_PRES WMO_AGENCY TRACK_TYPE DIST2LAND LANDFALL IFLAG USA_AGENCY USA_ATCF_ID USA_LAT USA_LON USA_RECORD USA_STATUS USA_WIND USA_PRES USA_SSHS USA_R34_NE USA_R34_SE USA_R34_SW USA_R34_NW USA_R50_NE USA_R50_SE USA_R50_SW USA_R50_NW USA_R64_NE USA_R64_SE USA_R64_SW USA_R64_NW USA_POCI USA_ROCI USA_RMW USA_EYE TOKYO_LAT TOKYO_LON TOKYO_GRADE TOKYO_WIND TOKYO_PRES TOKYO_R50_DIR TOKYO_R50_LONG TOKYO_R50_SHORT TOKYO_R30_DIR TOKYO_R30_LONG TOKYO_R30_SHORT TOKYO_LAND CMA_LAT CMA_LON CMA_CAT CMA_WIND CMA_PRES HKO_LAT HKO_LON HKO_CAT HKO_WIND HKO_PRES NEWDELHI_LAT NEWDELHI_LON NEWDELHI_GRADE NEWDELHI_WIND NEWDELHI_PRES NEWDELHI_CI NEWDELHI_DP NEWDELHI_POCI REUNION_LAT REUNION_LON REUNION_TYPE REUNION_WIND REUNION_PRES REUNION_TNUM REUNION_CI REUNION_RMW REUNION_R34_NE REUNION_R34_SE REUNION_R34_SW REUNION_R34_NW REUNION_R50_NE REUNION_R50_SE REUNION_R50_SW REUNION_R50_NW REUNION_R64_NE REUNION_R64_SE REUNION_R64_SW REUNION_R64_NW BOM_LAT BOM_LON BOM_TYPE BOM_WIND BOM_PRES BOM_TNUM BOM_CI BOM_RMW BOM_R34_NE BOM_R34_SE BOM_R34_SW BOM_R34_NW BOM_R50_NE BOM_R50_SE BOM_R50_SW BOM_R50_NW BOM_R64_NE BOM_R64_SE BOM_R64_SW BOM_R64_NW BOM_ROCI BOM_POCI BOM_EYE BOM_POS_METHOD BOM_PRES_METHOD NADI_LAT NADI_LON NADI_CAT NADI_WIND NADI_PRES WELLINGTON_LAT WELLINGTON_LON WELLINGTON_WIND WELLINGTON_PRES DS824_LAT DS824_LON DS824_STAGE DS824_WIND DS824_PRES TD9636_LAT TD9636_LON TD9636_STAGE TD9636_WIND TD9636_PRES TD9635_LAT TD9635_LON TD9635_WIND TD9635_PRES TD9635_ROCI NEUMANN_LAT NEUMANN_LON NEUMANN_CLASS NEUMANN_WIND NEUMANN_PRES MLC_LAT MLC_LON MLC_CLASS MLC_WIND MLC_PRES USA_GUST BOM_GUST BOM_GUST_PER REUNION_GUST REUNION_GUST_PER USA_SEAHGT USA_SEARAD_NE USA_SEARAD_SE USA_SEARAD_SW USA_SEARAD_NW STORM_SPEED STORM_DIR
1916276N11129 1916 53 WP MM NOT_NAMED 1916-10-02 09:00:00 NR 11.0000 129.000 main 349 321 __________O___ -1 11.0000 129.000 2 12 332
1916276N11129 1916 53 WP MM NOT_NAMED 1916-10-02 12:00:00 NR 11.5221 128.712 main 321 304 __________P___ -1 11.5221 128.712 2 12 331
1916276N11129 1916 53 WP MM NOT_NAMED 1916-10-02 15:00:00 NR 12.0253 128.429 main 304 293 __________P___ -1 12.0253 128.429 2 11 331
1916276N11129 1916 53 WP MM NOT_NAMED 1916-10-02 18:00:00 NR 12.4908 128.156 main 295 269 __________P___ -1 12.4908 128.156 2 10 329
1916276N11129 1916 53 WP MM NOT_NAMED 1916-10-02 21:00:00 NR 12.9000 127.900 main 272 259 __________O___ -1 12.9000 127.900 2 9 327
1916276N11129 1916 53 WP MM NOT_NAMED 1916-10-03 00:00:00 NR 13.2421 127.666 main 263 255 __________P___ -1 13.2421 127.666 2 8 326
1916276N11129 1916 53 WP MM NOT_NAMED 1916-10-03 03:00:00 NR 13.5374 127.454 main 261 257 __________P___ -1 13.5374 127.454 2 7 326
1916276N11129 1916 53 WP MM NOT_NAMED 1916-10-03 06:00:00 NR 13.8140 127.266 main 264 257 __________P___ -1 13.8140 127.266 2 7 329
1916276N11129 1916 53 WP MM NOT_NAMED 1916-10-03 09:00:00 NR 14.1000 127.100 main 272 272 __________O___ -1 14.1000 127.100 2 6 332
1916276N11129 1916 53 WP MM NOT_NAMED 1916-10-03 12:00:00 NR 14.3787 126.953 main 286 270 __________P___ -1 14.3787 126.953 2 6 335
1916276N11129 1916 53 WP MM NOT_NAMED 1916-10-03 15:00:00 NR 14.6800 126.827 main 273 271 __________P___ -1 14.6800 126.827 2 7 341
1916276N11129 1916 53 WP MM NOT_NAMED 1916-10-03 18:00:00 NR 15.0413 126.712 main 276 276 __________P___ -1 15.0413 126.712 2 9 345
1916276N11129 1916 53 WP MM NOT_NAMED 1916-10-03 21:00:00 NR 15.5000 126.600 main 296 296 __________O___ -1 15.5000 126.600 2 11 346
1916276N11129 1916 53 WP MM NOT_NAMED 1916-10-04 00:00:00 NR 16.0995 126.443 main 325 325 __________P___ -1 16.0995 126.443 2 13 347
1916276N11129 1916 53 WP MM NOT_NAMED 1916-10-04 03:00:00 NR 16.7953 126.291 main 379 379 __________P___ -1 16.7953 126.291 2 15 350
1916276N11129 1916 53 WP MM NOT_NAMED 1916-10-04 06:00:00 NR 17.5433 126.169 main 396 390 __________P___ -1 17.5433 126.169 2 15 353
1916276N11129 1916 53 WP MM NOT_NAMED 1916-10-04 09:00:00 NR 18.3000 126.100 main 401 400 __________O___ -1 18.3000 126.100 2 15 357
1916276N11129 1916 53 WP MM NOT_NAMED 1916-10-04 12:00:00 NR 19.0403 126.089 main 405 405 __________P___ -1 19.0403 126.089 2 15 1
1916276N11129 1916 53 WP MM NOT_NAMED 1916-10-04 15:00:00 NR 19.7746 126.137 main 428 428 __________P___ -1 19.7746 126.137 2 14 6
1916276N11129 1916 53 WP MM NOT_NAMED 1916-10-04 18:00:00 NR 20.4716 126.242 main 471 471 __________P___ -1 20.4716 126.242 2 14 11
1916276N11129 1916 53 WP MM NOT_NAMED 1916-10-04 21:00:00 NR 21.1000 126.400 main 524 524 __________O___ -1 21.1000 126.400 2 12 16
1916276N11129 1916 53 WP MM NOT_NAMED 1916-10-05 00:00:00 NR 21.6421 126.591 main 560 553 __________P___ -1 21.6421 126.591 2 11 22
1916276N11129 1916 53 WP MM NOT_NAMED 1916-10-05 03:00:00 NR 22.1124 126.832 main 565 565 __________P___ -1 22.1124 126.832 2 10 28
1916276N11129 1916 53 WP MM NOT_NAMED 1916-10-05 06:00:00 NR 22.5265 127.107 main 575 570 __________P___ -1 22.5265 127.107 2 10 34
1916276N11129 1916 53 WP MM NOT_NAMED 1916-10-05 09:00:00 NR 22.9000 127.400 main 587 584 __________O___ -1 22.9000 127.400 2 9 34
1916276N11129 1916 53 WP MM NOT_NAMED 1916-10-05 12:00:00 NR 23.2521 127.647 main 594 594 __________P___ -1 23.2521 127.647 2 8 35
1916276N11129 1916 53 WP MM NOT_NAMED 1916-10-05 15:00:00 NR 23.5713 127.912 main 617 617 __________P___ -1 23.5713 127.912 2 8 40
1916276N11129 1916 53 WP MM NOT_NAMED 1916-10-05 18:00:00 NR 23.8799 128.222 main 639 639 __________P___ -1 23.8799 128.222 2 9 45
1916276N11129 1916 53 WP MM NOT_NAMED 1916-10-05 21:00:00 NR 24.2000 128.600 main 672 672 __________O___ -1 24.2000 128.600 2 11 49
1916276N11129 1916 53 WP MM NOT_NAMED 1916-10-06 00:00:00 NR 24.5776 129.089 main 717 689 __________P___ -1 24.5776 129.089 2 12 51
1916276N11129 1916 53 WP MM NOT_NAMED 1916-10-06 03:00:00 NR 24.9661 129.646 main 678 638 __________P___ -1 24.9661 129.646 2 13 53
1916276N11129 1916 53 WP MM NOT_NAMED 1916-10-06 06:00:00 NR 25.3463 130.230 main 638 591 __________P___ -1 25.3463 130.230 2 13 55
1916276N11129 1916 53 WP MM NOT_NAMED 1916-10-06 09:00:00 NR 25.7000 130.800 main 591 560 __________O___ -1 25.7000 130.800 2 12 55
1916276N11129 1916 53 WP MM NOT_NAMED 1916-10-06 12:00:00 NR 26.0278 131.325 main 561 533 __________P___ -1 26.0278 131.325 2 11 56
1916276N11129 1916 53 WP MM NOT_NAMED 1916-10-06 15:00:00 NR 26.3247 131.825 main 535 512 __________P___ -1 26.3247 131.825 2 10 57
1916276N11129 1916 53 WP MM NOT_NAMED 1916-10-06 18:00:00 NR 26.5843 132.288 main 515 503 __________P___ -1 26.5843 132.288 2 9 59
1916276N11129 1916 53 WP MM NOT_NAMED 1916-10-06 21:00:00 NR 26.8000 132.700 main 507 499 __________O___ -1 26.8000 132.700 2 8 61
1916276N11129 1916 53 WP MM NOT_NAMED 1916-10-07 00:00:00 NR 26.9673 133.056 main 503 503 __________P___ -1 26.9673 133.056 2 7 63
1916276N11129 1916 53 WP MM NOT_NAMED 1916-10-07 03:00:00 NR 27.0940 133.361 main 508 503 __________P___ -1 27.0940 133.361 2 6 66
1916276N11129 1916 53 WP MM NOT_NAMED 1916-10-07 06:00:00 NR 27.1987 133.637 main 508 508 __________P___ -1 27.1987 133.637 2 5 67
1916276N11129 1916 53 WP MM NOT_NAMED 1916-10-07 09:00:00 NR 27.3000 133.900 main 516 512 __________O___ -1 27.3000 133.900 2 6 64
1916276N11129 1916 53 WP MM NOT_NAMED 1916-10-07 12:00:00 NR 27.4371 134.194 main 522 512 __________P___ -1 27.4371 134.194 2 6 62
1916276N11129 1916 53 WP MM NOT_NAMED 1916-10-07 15:00:00 NR 27.5724 134.480 main 519 515 __________P___ -1 27.5724 134.480 2 6 62
1916276N11129 1916 53 WP MM NOT_NAMED 1916-10-07 18:00:00 NR 27.6965 134.751 main 527 524 __________P___ -1 27.6965 134.751 2 5 64
1916276N11129 1916 53 WP MM NOT_NAMED 1916-10-07 21:00:00 NR 27.8000 135.000 main 531 531 __________O___ -1 27.8000 135.000 2 4 69
1916276N11129 1916 53 WP MM NOT_NAMED 1916-10-08 00:00:00 NR 27.8550 135.222 main 535 535 __________P___ -1 27.8550 135.222 2 4 76
1916276N11129 1916 53 WP MM NOT_NAMED 1916-10-08 03:00:00 NR 27.8922 135.423 main 549 549 __________P___ -1 27.8922 135.423 2 4 77
1916276N11129 1916 53 WP MM NOT_NAMED 1916-10-08 06:00:00 NR 27.9332 135.613 main 562 562 __________P___ -1 27.9332 135.613 2 3 72
1916276N11129 1916 53 WP MM NOT_NAMED 1916-10-08 09:00:00 NR 28.0000 135.800 main 569 568 __________O___ -1 28.0000 135.800 2 4 61
1916276N11129 1916 53 WP MM NOT_NAMED 1916-10-08 12:00:00 NR 28.1127 135.976 main 576 569 __________P___ -1 28.1127 135.976 2 4 51
1916276N11129 1916 53 WP MM NOT_NAMED 1916-10-08 15:00:00 NR 28.2544 136.156 main 570 559 __________P___ -1 28.2544 136.156 2 5 48
1916276N11129 1916 53 WP MM NOT_NAMED 1916-10-08 18:00:00 NR 28.4189 136.357 main 560 539 __________P___ -1 28.4189 136.357 2 5 49
1916276N11129 1916 53 WP MM NOT_NAMED 1916-10-08 21:00:00 NR 28.6000 136.600 main 540 523 __________O___ -1 28.6000 136.600 2 6 53
1916276N11129 1916 53 WP MM NOT_NAMED 1916-10-09 00:00:00 NR 28.7860 136.915 main 523 508 __________P___ -1 28.7860 136.915 2 7 57
1916276N11129 1916 53 WP MM NOT_NAMED 1916-10-09 03:00:00 NR 28.9855 137.270 main 511 498 __________P___ -1 28.9855 137.270 2 8 57
1916276N11129 1916 53 WP MM NOT_NAMED 1916-10-09 06:00:00 NR 29.1922 137.640 main 498 488 __________P___ -1 29.1922 137.640 2 8 57
1916276N11129 1916 53 WP MM NOT_NAMED 1916-10-09 09:00:00 NR 29.4000 138.000 main 492 485 __________O___ -1 29.4000 138.000 2 7 55
1916276N11129 1916 53 WP MM NOT_NAMED 1916-10-09 12:00:00 NR 29.6038 138.323 main 485 475 __________P___ -1 29.6038 138.323 2 7 53
1916276N11129 1916 53 WP MM NOT_NAMED 1916-10-09 15:00:00 NR 29.8072 138.630 main 480 473 __________P___ -1 29.8072 138.630 2 7 52
1916276N11129 1916 53 WP MM NOT_NAMED 1916-10-09 18:00:00 NR 30.0070 138.923 main 479 473 __________P___ -1 30.0070 138.923 2 6 51
1916276N11129 1916 53 WP MM NOT_NAMED 1916-10-09 21:00:00 NR 30.2000 139.200 main 479 471 __________O___ -1 30.2000 139.200 2 6 51
1916276N11129 1916 53 WP MM NOT_NAMED 1916-10-10 00:00:00 NR 30.3861 139.473 main 472 453 __________P___ -1 30.3861 139.473 2 6 51
1916276N11129 1916 53 WP MM NOT_NAMED 1916-10-10 03:00:00 NR 30.5648 139.730 main 453 446 __________P___ -1 30.5648 139.730 2 6 51
1916276N11129 1916 53 WP MM NOT_NAMED 1916-10-10 06:00:00 NR 30.7361 139.973 main 449 430 __________P___ -1 30.7361 139.973 2 5 50
1916276N11129 1916 53 WP MM NOT_NAMED 1916-10-10 09:00:00 NR 30.9000 140.200 main 432 425 __________O___ -1 30.9000 140.200 2 5 50
1916276N11129 1916 53 WP MM NOT_NAMED 1916-10-10 12:00:00 NR 31.0567 140.413 main 417 410 __________P___ -1 31.0567 140.413 2 5 49
1916276N11129 1916 53 WP MM NOT_NAMED 1916-10-10 15:00:00 NR 31.2077 140.615 main 414 408 __________P___ -1 31.2077 140.615 2 5 49
1916276N11129 1916 53 WP MM NOT_NAMED 1916-10-10 18:00:00 NR 31.3549 140.809 main 399 390 __________P___ -1 31.3549 140.809 2 4 48
1916276N11129 1916 53 WP MM NOT_NAMED 1916-10-10 21:00:00 NR 31.5000 141.000 main 392 __________O___ -1 31.5000 141.000 2 4 48

Digital Typhoon Data and Search

About IBTrACS Database

This database is a web-friendly format of International Best Track Archive for Climate Stewardship (IBTrACS), a global best track data archive curated by NOAA dating back to 1842.

Updated: 2021-12-03